Time;durP1;ratioP1;P1;durP2;ratioP2;P2;SDS_P1;SDS_P2;PMS_P1;PMS_P2;Temp;Humidity;BMP_temperature;BMP_pressure;BME280_temperature;BME280_humidity;BME280_pressure;Samples;Min_cycle;Max_cycle;Signal;HPM_P1;HPM_P2
2024/03/21 00:01:20;;;;;;;;;;;20.30;57.80;;;;;;5115816;28;20002;-72
2024/03/21 00:03:46;;;;;;;;;;;20.30;56.70;;;;;;5097262;28;20301;-72
2024/03/21 00:06:12;;;;;;;;;;;20.20;57.40;;;;;;5115728;28;20434;-72
2024/03/21 00:08:37;;;;;;;;;;;20.20;57.10;;;;;;5115687;28;19908;-71
2024/03/21 00:11:03;;;;;;;;;;;20.20;57.40;;;;;;5097429;28;20278;-72
2024/03/21 00:13:29;;;;;;;;;;;20.30;57.40;;;;;;5115678;28;19958;-72
2024/03/21 00:15:54;;;;;;;;;;;20.20;57.20;;;;;;5115618;28;20397;-72
2024/03/21 00:18:20;;;;;;;;;;;20.10;57.30;;;;;;5115687;28;19923;-72
2024/03/21 00:20:45;;;;;;;;;;;20.20;57.30;;;;;;5115507;28;19908;-72
2024/03/21 00:23:11;;;;;;;;;;;20.10;57.30;;;;;;5115680;28;20009;-72
2024/03/21 00:25:36;;;;;;;;;;;20.20;57.60;;;;;;5115407;28;19911;-72
2024/03/21 00:28:02;;;;;;;;;;;20.10;57.10;;;;;;5115835;28;19998;-72
2024/03/21 00:30:27;;;;;;;;;;;20.20;57.10;;;;;;5115374;28;19914;-71
2024/03/21 00:32:53;;;;;;;;;;;20.10;57.30;;;;;;5115269;28;20380;-71
2024/03/21 00:35:18;;;;;;;;;;;20.10;57.30;;;;;;5115275;28;19908;-71
2024/03/21 00:37:44;;;;;;;;;;;20.10;57.40;;;;;;5115145;28;20010;-72
2024/03/21 00:40:09;;;;;;;;;;;20.10;57.40;;;;;;5115032;28;19999;-72
2024/03/21 00:42:39;;;;;;;;;;;20.10;56.60;;;;;;5114989;28;19985;-72
2024/03/21 00:45:05;;;;;;;;;;;20.00;57.10;;;;;;5114888;28;19960;-72
2024/03/21 00:47:30;;;;;;;;;;;20.10;57.00;;;;;;5115113;28;19908;-72
2024/03/21 00:49:55;;;;;;;;;;;20.00;57.30;;;;;;5114880;28;19908;-72
2024/03/21 00:52:21;;;;;;;;;;;20.00;57.40;;;;;;5113538;28;19919;-72
2024/03/21 00:54:46;;;;;;;;;;;20.00;57.40;;;;;;5115337;28;19907;-72
2024/03/21 00:57:12;;;;;;;;;;;20.00;57.50;;;;;;5114596;28;20366;-72
2024/03/21 00:59:38;;;;;;;;;;;20.00;57.30;;;;;;5114730;28;19931;-72
2024/03/21 01:02:04;;;;;;;;;;;20.20;56.70;;;;;;5095945;28;19962;-72
2024/03/21 01:04:29;;;;;;;;;;;20.00;57.50;;;;;;5114574;28;19947;-72
2024/03/21 01:06:55;;;;;;;;;;;19.90;57.40;;;;;;5114910;28;19907;-72
2024/03/21 01:09:21;;;;;;;;;;;19.90;57.50;;;;;;5114753;28;19931;-72
2024/03/21 01:11:46;;;;;;;;;;;19.90;57.60;;;;;;5114512;28;20267;-72
2024/03/21 01:14:12;;;;;;;;;;;19.90;57.30;;;;;;5114321;28;19959;-72
2024/03/21 01:16:38;;;;;;;;;;;19.90;57.30;;;;;;5114318;28;19908;-72
2024/03/21 01:19:04;;;;;;;;;;;19.70;57.50;;;;;;5114359;28;19933;-72
2024/03/21 01:21:29;;;;;;;;;;;19.90;57.40;;;;;;5114257;28;20283;-72
2024/03/21 01:23:55;;;;;;;;;;;19.80;57.40;;;;;;5114721;28;19912;-72
2024/03/21 01:26:20;;;;;;;;;;;19.80;57.60;;;;;;5114202;28;20370;-72
2024/03/21 01:28:46;;;;;;;;;;;19.90;57.60;;;;;;5114175;28;20314;-72
2024/03/21 01:31:14;;;;;;;;;;;19.80;57.40;;;;;;5114102;28;19912;-72
2024/03/21 01:33:43;;;;;;;;;;;19.80;55.30;;;;;;5114261;28;20307;-72
2024/03/21 01:36:12;;;;;;;;;;;19.80;54.80;;;;;;5114093;28;20370;-72
2024/03/21 01:38:37;;;;;;;;;;;19.80;57.20;;;;;;5114075;28;20024;-72
2024/03/21 01:41:03;;;;;;;;;;;19.80;57.50;;;;;;5114005;28;20446;-72
2024/03/21 01:43:29;;;;;;;;;;;19.80;57.40;;;;;;5113844;28;19908;-72
2024/03/21 01:46:03;;;;;;;;;;;19.80;57.40;;;;;;5113898;28;19907;-72
2024/03/21 01:48:29;;;;;;;;;;;19.80;54.90;;;;;;5113898;28;19913;-72
2024/03/21 01:50:55;;;;;;;;;;;19.80;57.50;;;;;;5114240;28;19908;-72
2024/03/21 01:53:20;;;;;;;;;;;19.80;57.70;;;;;;5114337;28;20318;-71
2024/03/21 01:55:46;;;;;;;;;;;19.70;57.70;;;;;;5113575;28;19908;-72
2024/03/21 01:58:11;;;;;;;;;;;19.70;57.40;;;;;;5113393;28;19920;-72
2024/03/21 02:00:37;;;;;;;;;;;19.70;57.60;;;;;;5113509;28;19908;-72
2024/03/21 02:03:02;;;;;;;;;;;19.80;57.10;;;;;;5112945;28;19944;-72
2024/03/21 02:05:28;;;;;;;;;;;19.70;57.10;;;;;;5113443;28;19908;-72
2024/03/21 02:07:53;;;;;;;;;;;19.60;57.60;;;;;;5113267;28;19908;-72
2024/03/21 02:10:19;;;;;;;;;;;19.60;57.60;;;;;;5113286;28;19927;-72
2024/03/21 02:12:48;;;;;;;;;;;19.70;57.50;;;;;;5113263;28;20016;-72
2024/03/21 02:15:14;;;;;;;;;;;19.60;57.50;;;;;;5113238;28;20369;-72
2024/03/21 02:17:40;;;;;;;;;;;19.60;57.70;;;;;;5113027;28;20014;-72
2024/03/21 02:20:07;;;;;;;;;;;19.60;57.60;;;;;;5113959;28;19958;-72
2024/03/21 02:22:35;;;;;;;;;;;19.60;57.10;;;;;;5113207;28;19918;-72
2024/03/21 02:25:11;;;;;;;;;;;19.60;56.70;;;;;;5113068;28;19908;-72
2024/03/21 02:27:37;;;;;;;;;;;19.60;54.90;;;;;;5112948;28;19908;-71
2024/03/21 02:30:03;;;;;;;;;;;20.20;58.10;;;;;;5112980;28;19908;-72
2024/03/21 02:32:29;;;;;;;;;;;19.50;57.60;;;;;;5113156;28;19908;-72
2024/03/21 02:34:55;;;;;;;;;;;19.50;57.60;;;;;;5113006;28;19931;-72
2024/03/21 02:37:20;;;;;;;;;;;19.50;57.60;;;;;;5112752;28;20011;-72
2024/03/21 02:39:52;;;;;;;;;;;19.50;57.70;;;;;;5112845;28;19977;-72
2024/03/21 02:42:18;;;;;;;;;;;19.50;57.00;;;;;;5112794;28;19908;-72
2024/03/21 02:44:43;;;;;;;;;;;19.50;57.60;;;;;;5112910;28;19907;-72
2024/03/21 02:47:09;;;;;;;;;;;19.50;57.60;;;;;;5112712;28;20275;-72
2024/03/21 02:49:34;;;;;;;;;;;19.20;57.50;;;;;;5113148;28;19914;-72
2024/03/21 02:52:00;;;;;;;;;;;19.50;57.80;;;;;;5112611;28;19908;-72
2024/03/21 02:54:25;;;;;;;;;;;19.50;57.50;;;;;;5112625;28;19996;-72
2024/03/21 02:56:51;;;;;;;;;;;19.40;57.40;;;;;;5112512;28;19916;-72
2024/03/21 02:59:16;;;;;;;;;;;19.50;57.70;;;;;;5112548;28;19907;-72
2024/03/21 03:01:42;;;;;;;;;;;19.50;56.90;;;;;;5112497;28;20370;-71
2024/03/21 03:04:10;;;;;;;;;;;19.40;57.60;;;;;;5112317;28;19920;-72
2024/03/21 03:06:35;;;;;;;;;;;19.40;57.50;;;;;;5112418;28;19908;-72
2024/03/21 03:09:01;;;;;;;;;;;19.40;57.50;;;;;;5112550;28;19908;-72
2024/03/21 03:11:27;;;;;;;;;;;19.40;57.60;;;;;;5112435;28;20523;-72
2024/03/21 03:13:52;;;;;;;;;;;19.40;58.00;;;;;;5112434;28;20374;-72
2024/03/21 03:16:18;;;;;;;;;;;19.40;57.50;;;;;;5111785;28;19915;-72
2024/03/21 03:18:43;;;;;;;;;;;19.40;57.80;;;;;;5094393;28;19959;-72
2024/03/21 03:21:09;;;;;;;;;;;19.40;58.40;;;;;;5112259;28;19908;-72
2024/03/21 03:23:34;;;;;;;;;;;19.30;57.70;;;;;;5112215;28;19908;-71
2024/03/21 03:26:00;;;;;;;;;;;19.10;57.60;;;;;;5112278;28;19954;-71
2024/03/21 03:28:25;;;;;;;;;;;19.30;57.90;;;;;;5112208;28;19999;-72
2024/03/21 03:30:51;;;;;;;;;;;19.30;58.00;;;;;;5112287;28;20401;-72
2024/03/21 03:36:01;;;;;;;;;;;19.30;55.50;;;;;;5119112;28;20294;-71
2024/03/21 03:38:26;;;;;;;;;;;19.30;57.60;;;;;;5112082;28;19915;-72
2024/03/21 03:40:52;;;;;;;;;;;19.20;57.80;;;;;;5112118;28;19912;-71
2024/03/21 03:43:17;;;;;;;;;;;19.20;57.90;;;;;;5093859;28;19961;-72
2024/03/21 03:45:43;;;;;;;;;;;19.30;57.70;;;;;;5112603;28;19977;-71
2024/03/21 03:48:08;;;;;;;;;;;19.20;57.90;;;;;;5111952;28;19907;-72
2024/03/21 03:50:33;;;;;;;;;;;19.20;58.00;;;;;;5112149;28;20014;-71
2024/03/21 03:52:59;;;;;;;;;;;19.20;57.80;;;;;;5111991;28;19908;-72
2024/03/21 03:55:24;;;;;;;;;;;19.20;57.80;;;;;;5112079;28;19908;-72
2024/03/21 03:57:50;;;;;;;;;;;19.20;57.80;;;;;;5112077;28;19969;-72
2024/03/21 04:00:15;;;;;;;;;;;19.20;58.00;;;;;;5112057;28;20365;-72
2024/03/21 04:02:43;;;;;;;;;;;19.20;57.20;;;;;;5111662;28;19928;-72
2024/03/21 04:05:09;;;;;;;;;;;19.20;57.40;;;;;;5111922;28;19911;-72
2024/03/21 04:07:35;;;;;;;;;;;19.10;58.00;;;;;;5111741;28;19915;-72
2024/03/21 04:10:01;;;;;;;;;;;19.10;57.80;;;;;;5111911;28;19908;-72
2024/03/21 04:12:26;;;;;;;;;;;18.80;57.60;;;;;;5111901;28;19908;-72
2024/03/21 04:14:52;;;;;;;;;;;19.10;58.10;;;;;;5112329;28;20033;-72
2024/03/21 04:17:18;;;;;;;;;;;19.10;57.70;;;;;;5111672;28;19916;-72
2024/03/21 04:19:44;;;;;;;;;;;19.10;57.80;;;;;;5111754;28;19988;-72
2024/03/21 04:22:10;;;;;;;;;;;19.10;57.80;;;;;;5111701;28;19916;-72
2024/03/21 04:24:37;;;;;;;;;;;19.10;57.80;;;;;;5111826;28;19915;-72
2024/03/21 04:27:03;;;;;;;;;;;19.20;57.60;;;;;;5113544;28;19916;-72
2024/03/21 04:29:29;;;;;;;;;;;19.10;57.60;;;;;;5115295;28;19915;-72
2024/03/21 04:31:54;;;;;;;;;;;19.10;58.00;;;;;;5115379;28;19915;-72
2024/03/21 04:34:20;;;;;;;;;;;19.00;58.00;;;;;;5115414;28;19908;-72
2024/03/21 04:36:45;;;;;;;;;;;19.00;58.10;;;;;;5115047;28;19962;-72
2024/03/21 04:39:11;;;;;;;;;;;19.00;57.90;;;;;;5115089;28;19935;-72
2024/03/21 04:41:36;;;;;;;;;;;19.00;58.00;;;;;;5115039;28;19955;-72
2024/03/21 04:44:03;;;;;;;;;;;19.00;58.20;;;;;;5115601;28;19916;-72
2024/03/21 04:46:28;;;;;;;;;;;19.00;57.90;;;;;;5115254;28;20348;-72
2024/03/21 04:48:53;;;;;;;;;;;18.50;57.50;;;;;;5114858;28;20028;-72
2024/03/21 04:51:19;;;;;;;;;;;19.00;58.00;;;;;;5115188;28;19915;-71
2024/03/21 04:53:44;;;;;;;;;;;19.00;57.90;;;;;;5114899;28;19949;-72
2024/03/21 04:56:10;;;;;;;;;;;18.90;57.90;;;;;;5114792;28;19908;-72
2024/03/21 04:58:35;;;;;;;;;;;19.00;57.30;;;;;;5114634;28;20400;-72
2024/03/21 05:01:01;;;;;;;;;;;18.90;58.10;;;;;;5114775;28;19919;-72
2024/03/21 05:03:26;;;;;;;;;;;19.00;57.40;;;;;;5114498;28;20370;-72
2024/03/21 05:05:52;;;;;;;;;;;18.90;57.90;;;;;;5114668;28;19912;-72
2024/03/21 05:08:17;;;;;;;;;;;18.90;58.10;;;;;;5114679;28;19955;-72
2024/03/21 05:10:43;;;;;;;;;;;18.90;57.40;;;;;;5115169;28;19908;-72
2024/03/21 05:13:09;;;;;;;;;;;18.90;55.60;;;;;;5114546;28;19908;-72
2024/03/21 05:15:34;;;;;;;;;;;18.90;57.80;;;;;;5114498;28;19930;-72
2024/03/21 05:18:00;;;;;;;;;;;19.00;57.90;;;;;;5114596;28;20010;-72
2024/03/21 05:20:27;;;;;;;;;;;18.90;57.90;;;;;;5114454;28;19961;-72
2024/03/21 05:22:52;;;;;;;;;;;18.90;58.50;;;;;;5114380;28;19922;-72
2024/03/21 05:25:18;;;;;;;;;;;18.90;58.00;;;;;;5114259;28;19908;-72
2024/03/21 05:27:43;;;;;;;;;;;18.80;57.80;;;;;;5114152;28;19908;-72
2024/03/21 05:30:09;;;;;;;;;;;18.70;57.90;;;;;;5114242;28;19941;-72
2024/03/21 05:32:34;;;;;;;;;;;18.80;57.00;;;;;;5114295;28;19908;-72
2024/03/21 05:35:00;;;;;;;;;;;18.70;57.90;;;;;;5114134;28;19912;-72
2024/03/21 05:37:25;;;;;;;;;;;18.80;58.50;;;;;;5113654;28;20402;-72
2024/03/21 05:39:51;;;;;;;;;;;18.80;57.90;;;;;;5114142;28;19937;-72
2024/03/21 05:42:17;;;;;;;;;;;18.80;57.80;;;;;;5113785;28;20338;-72
2024/03/21 05:44:43;;;;;;;;;;;18.80;57.90;;;;;;5113834;28;19954;-72
2024/03/21 05:47:21;;;;;;;;;;;18.80;58.10;;;;;;5113837;28;19907;-72
2024/03/21 05:49:46;;;;;;;;;;;18.80;55.00;;;;;;5114011;28;19908;-72
2024/03/21 05:52:12;;;;;;;;;;;18.80;57.90;;;;;;5113764;28;19915;-72
2024/03/21 05:54:37;;;;;;;;;;;18.70;58.00;;;;;;5113580;28;19908;-72
2024/03/21 05:57:03;;;;;;;;;;;18.70;58.10;;;;;;5113155;28;19934;-72
2024/03/21 05:59:28;;;;;;;;;;;18.60;57.50;;;;;;5113311;28;19961;-72
2024/03/21 06:01:54;;;;;;;;;;;18.10;57.10;;;;;;5113271;28;20324;-72
2024/03/21 06:04:20;;;;;;;;;;;18.70;57.80;;;;;;5113112;28;19973;-72
2024/03/21 06:06:46;;;;;;;;;;;18.70;58.00;;;;;;5113367;28;20286;-72
2024/03/21 06:09:12;;;;;;;;;;;18.70;57.90;;;;;;5113588;28;19981;-72
2024/03/21 06:11:37;;;;;;;;;;;18.60;57.90;;;;;;5113377;28;19915;-72
2024/03/21 06:14:03;;;;;;;;;;;18.70;57.70;;;;;;5113196;28;19930;-72
2024/03/21 06:16:29;;;;;;;;;;;18.60;58.10;;;;;;5113071;28;19917;-72
2024/03/21 06:18:55;;;;;;;;;;;18.70;57.90;;;;;;5113294;28;19916;-72
2024/03/21 06:21:20;;;;;;;;;;;18.60;58.00;;;;;;5117391;28;19908;-72
2024/03/21 06:23:46;;;;;;;;;;;18.60;58.10;;;;;;5112983;28;20011;-72
2024/03/21 06:26:11;;;;;;;;;;;18.60;58.10;;;;;;5112955;28;19912;-72
2024/03/21 06:28:37;;;;;;;;;;;18.60;58.00;;;;;;5112832;28;19907;-72
2024/03/21 06:31:02;;;;;;;;;;;18.60;57.90;;;;;;5112808;28;19953;-72
2024/03/21 06:33:28;;;;;;;;;;;18.50;57.70;;;;;;5112952;28;20322;-72
2024/03/21 06:35:53;;;;;;;;;;;18.50;58.10;;;;;;5112968;28;19907;-71
2024/03/21 06:38:19;;;;;;;;;;;18.60;57.90;;;;;;5113120;28;19963;-70
2024/03/21 06:40:45;;;;;;;;;;;18.50;58.00;;;;;;5094788;28;20011;-71
2024/03/21 06:43:10;;;;;;;;;;;18.50;58.00;;;;;;5112569;28;19998;-71
2024/03/21 06:45:37;;;;;;;;;;;18.50;58.40;;;;;;5112317;28;19915;-71
2024/03/21 06:48:03;;;;;;;;;;;18.50;58.00;;;;;;5112357;28;20360;-71
2024/03/21 06:50:29;;;;;;;;;;;18.50;57.70;;;;;;5111559;28;19907;-72
2024/03/21 06:52:56;;;;;;;;;;;18.50;57.80;;;;;;5112357;28;19908;-71
2024/03/21 06:55:22;;;;;;;;;;;18.50;58.30;;;;;;5112356;28;19912;-71
2024/03/21 06:57:50;;;;;;;;;;;18.40;58.10;;;;;;5112169;28;20495;-72
2024/03/21 07:00:19;;;;;;;;;;;18.50;58.10;;;;;;5112312;28;20032;-72
2024/03/21 07:02:44;;;;;;;;;;;18.60;58.00;;;;;;5112128;28;20427;-72
2024/03/21 07:05:10;;;;;;;;;;;18.40;57.90;;;;;;5112846;28;19916;-72
2024/03/21 07:07:36;;;;;;;;;;;18.60;57.90;;;;;;5112222;28;19908;-71
2024/03/21 07:10:02;;;;;;;;;;;18.50;58.10;;;;;;5112192;28;19930;-72
2024/03/21 07:12:28;;;;;;;;;;;18.40;58.10;;;;;;5112228;28;19908;-70
2024/03/21 07:14:53;;;;;;;;;;;18.40;58.20;;;;;;5115724;28;19915;-69
2024/03/21 07:17:19;;;;;;;;;;;18.40;57.80;;;;;;5112387;28;20454;-73
2024/03/21 07:19:45;;;;;;;;;;;18.40;58.10;;;;;;5112139;28;19908;-72
2024/03/21 07:22:10;;;;;;;;;;;18.40;58.30;;;;;;5112116;28;19908;-71
2024/03/21 07:24:36;;;;;;;;;;;18.30;58.10;;;;;;5112099;28;20387;-71
2024/03/21 07:27:01;;;;;;;;;;;18.40;58.20;;;;;;5112039;28;20350;-71
2024/03/21 07:29:28;;;;;;;;;;;18.40;58.20;;;;;;5112341;28;20420;-71
2024/03/21 07:31:53;;;;;;;;;;;18.40;58.10;;;;;;5111944;28;19908;-72
2024/03/21 07:34:19;;;;;;;;;;;18.40;58.30;;;;;;5112574;28;20401;-70
2024/03/21 07:36:44;;;;;;;;;;;18.40;58.30;;;;;;5111768;28;19908;-72
2024/03/21 07:39:10;;;;;;;;;;;18.40;58.30;;;;;;5111850;28;19912;-72
2024/03/21 07:41:36;;;;;;;;;;;18.30;58.00;;;;;;5111928;28;19931;-72
2024/03/21 07:44:02;;;;;;;;;;;18.30;58.40;;;;;;5111854;28;20365;-71
2024/03/21 07:46:29;;;;;;;;;;;18.30;58.30;;;;;;5111985;28;20360;-71
2024/03/21 07:48:55;;;;;;;;;;;18.40;58.40;;;;;;5111978;28;20315;-71
2024/03/21 07:51:21;;;;;;;;;;;18.30;58.40;;;;;;5111993;28;19908;-71
2024/03/21 07:53:46;;;;;;;;;;;18.30;58.40;;;;;;5111859;28;19915;-71
2024/03/21 07:56:12;;;;;;;;;;;18.30;58.20;;;;;;5111798;28;20261;-71
2024/03/21 07:58:38;;;;;;;;;;;18.30;58.30;;;;;;5111855;28;20006;-71
2024/03/21 08:01:03;;;;;;;;;;;18.30;58.30;;;;;;5112331;28;19907;-71
2024/03/21 08:03:29;;;;;;;;;;;18.40;57.90;;;;;;5116042;28;19931;-71
2024/03/21 08:05:54;;;;;;;;;;;18.40;58.60;;;;;;5115729;28;19960;-71
2024/03/21 08:08:20;;;;;;;;;;;18.20;58.30;;;;;;5115680;28;19962;-71
2024/03/21 08:10:45;;;;;;;;;;;18.40;58.40;;;;;;5115499;28;19908;-71
2024/03/21 08:13:11;;;;;;;;;;;18.30;58.50;;;;;;5115588;28;20092;-71
2024/03/21 08:15:36;;;;;;;;;;;18.30;58.50;;;;;;5115588;28;19908;-72
2024/03/21 08:18:03;;;;;;;;;;;18.20;58.30;;;;;;5115412;28;19965;-72
2024/03/21 08:20:29;;;;;;;;;;;18.30;58.20;;;;;;5115408;28;20370;-72
2024/03/21 08:22:54;;;;;;;;;;;18.30;58.40;;;;;;5115332;28;19953;-71
2024/03/21 08:25:20;;;;;;;;;;;18.20;58.40;;;;;;5115337;28;19958;-71
2024/03/21 08:27:45;;;;;;;;;;;18.30;58.20;;;;;;5115317;28;19908;-72
2024/03/21 08:30:11;;;;;;;;;;;18.30;58.80;;;;;;5115317;28;19918;-72
2024/03/21 08:32:37;;;;;;;;;;;18.20;58.30;;;;;;5115594;28;19977;-72
2024/03/21 08:35:04;;;;;;;;;;;18.20;58.40;;;;;;5115126;28;19907;-71
2024/03/21 08:37:30;;;;;;;;;;;18.20;57.80;;;;;;5114933;28;19922;-71
2024/03/21 08:39:57;;;;;;;;;;;18.20;58.50;;;;;;5114977;28;20286;-71
2024/03/21 08:42:23;;;;;;;;;;;18.20;58.50;;;;;;5115065;28;20334;-71
2024/03/21 08:44:48;;;;;;;;;;;18.30;58.40;;;;;;5115048;28;19947;-71
2024/03/21 08:47:14;;;;;;;;;;;18.30;58.40;;;;;;5114904;28;19907;-71
2024/03/21 08:49:39;;;;;;;;;;;18.20;58.60;;;;;;5114863;28;19939;-71
2024/03/21 08:52:05;;;;;;;;;;;18.20;58.50;;;;;;5114958;28;19908;-71
2024/03/21 08:54:31;;;;;;;;;;;18.20;58.40;;;;;;5114737;28;19908;-72
2024/03/21 08:56:56;;;;;;;;;;;18.20;58.40;;;;;;5114496;28;19915;-72
2024/03/21 08:59:22;;;;;;;;;;;18.20;58.50;;;;;;5115185;28;19918;-71
2024/03/21 09:01:48;;;;;;;;;;;18.40;58.20;;;;;;5114619;28;19908;-71
2024/03/21 09:04:13;;;;;;;;;;;18.20;58.60;;;;;;5114447;28;19972;-71
2024/03/21 09:06:39;;;;;;;;;;;18.30;58.60;;;;;;5114664;28;19915;-71
2024/03/21 09:09:05;;;;;;;;;;;18.20;58.50;;;;;;5114436;28;20271;-71
2024/03/21 09:11:34;;;;;;;;;;;18.20;58.30;;;;;;5114489;28;19915;-71
2024/03/21 09:14:01;;;;;;;;;;;18.20;58.60;;;;;;5113399;28;19908;-71
2024/03/21 09:16:27;;;;;;;;;;;18.20;58.40;;;;;;5114380;28;19908;-71
2024/03/21 09:18:52;;;;;;;;;;;18.20;58.70;;;;;;5114269;28;20332;-71
2024/03/21 09:21:18;;;;;;;;;;;18.30;58.60;;;;;;5114136;28;19908;-70
2024/03/21 09:23:45;;;;;;;;;;;18.30;58.80;;;;;;5114397;28;19914;-69
2024/03/21 09:26:10;;;;;;;;;;;18.30;58.30;;;;;;5114235;28;19912;-69
2024/03/21 09:28:37;;;;;;;;;;;18.20;58.60;;;;;;5114804;28;20331;-70
2024/03/21 09:31:03;;;;;;;;;;;18.20;58.60;;;;;;5114153;28;20310;-69
2024/03/21 09:33:28;;;;;;;;;;;18.30;58.30;;;;;;5113993;28;19954;-69
2024/03/21 09:35:57;;;;;;;;;;;18.20;58.60;;;;;;5113910;28;20350;-70
2024/03/21 09:38:23;;;;;;;;;;;18.20;55.60;;;;;;5113816;28;19967;-69
2024/03/21 09:40:48;;;;;;;;;;;18.30;58.30;;;;;;5113959;28;19946;-69
2024/03/21 09:43:15;;;;;;;;;;;18.20;58.70;;;;;;5113757;28;20020;-70
2024/03/21 09:45:43;;;;;;;;;;;18.20;58.70;;;;;;5113742;28;20422;-70
2024/03/21 09:48:09;;;;;;;;;;;18.20;59.30;;;;;;5095193;28;19908;-70
2024/03/21 09:50:34;;;;;;;;;;;18.20;58.70;;;;;;5113712;28;19914;-70
2024/03/21 09:53:00;;;;;;;;;;;18.30;59.00;;;;;;5113701;28;20010;-70
2024/03/21 09:55:26;;;;;;;;;;;18.20;58.70;;;;;;5113485;28;20377;-70
2024/03/21 09:57:52;;;;;;;;;;;18.20;59.00;;;;;;5113560;28;20385;-70
2024/03/21 10:00:18;;;;;;;;;;;18.20;59.20;;;;;;5113432;28;19908;-70
2024/03/21 10:02:46;;;;;;;;;;;18.30;58.50;;;;;;5113154;28;19920;-71
2024/03/21 10:05:21;;;;;;;;;;;18.20;59.00;;;;;;5113370;28;20270;-71
2024/03/21 10:07:47;;;;;;;;;;;18.30;55.90;;;;;;5113211;28;20002;-71
2024/03/21 10:10:13;;;;;;;;;;;18.20;59.40;;;;;;5113283;28;19911;-71
2024/03/21 10:12:38;;;;;;;;;;;18.20;59.00;;;;;;5113178;28;19962;-71
2024/03/21 10:15:04;;;;;;;;;;;18.20;59.00;;;;;;5113698;28;19911;-71
2024/03/21 10:17:30;;;;;;;;;;;18.30;58.60;;;;;;5112823;28;20014;-71
2024/03/21 10:19:57;;;;;;;;;;;18.20;59.20;;;;;;5113076;28;19962;-71
2024/03/21 10:22:23;;;;;;;;;;;18.20;59.00;;;;;;5112984;28;19912;-71
2024/03/21 10:24:51;;;;;;;;;;;18.20;59.10;;;;;;5112812;28;19908;-70
2024/03/21 10:27:17;;;;;;;;;;;18.20;56.10;;;;;;5113107;28;19908;-70
2024/03/21 10:29:44;;;;;;;;;;;18.30;58.60;;;;;;5112862;28;20297;-70
2024/03/21 10:32:15;;;;;;;;;;;18.20;59.10;;;;;;5112728;28;19912;-71
2024/03/21 10:34:42;;;;;;;;;;;18.20;59.30;;;;;;5112868;28;19950;-71
2024/03/21 10:37:07;;;;;;;;;;;18.30;59.20;;;;;;5112638;28;19918;-70
2024/03/21 10:39:33;;;;;;;;;;;18.20;59.10;;;;;;5112696;28;19908;-70
2024/03/21 10:42:01;;;;;;;;;;;18.20;59.10;;;;;;5112766;28;20308;-70
2024/03/21 10:44:26;;;;;;;;;;;18.20;58.70;;;;;;5113094;28;20337;-70
2024/03/21 10:46:52;;;;;;;;;;;18.30;59.00;;;;;;5112543;28;19915;-70
2024/03/21 10:49:17;;;;;;;;;;;18.20;59.20;;;;;;5112594;28;19942;-71
2024/03/21 10:51:44;;;;;;;;;;;18.20;59.20;;;;;;5112597;28;19908;-71
2024/03/21 10:54:12;;;;;;;;;;;18.20;59.00;;;;;;5112634;28;20010;-71
2024/03/21 10:56:39;;;;;;;;;;;18.20;59.00;;;;;;5112469;28;20048;-72
2024/03/21 10:59:04;;;;;;;;;;;18.30;59.50;;;;;;5112294;28;20271;-71
2024/03/21 11:01:34;;;;;;;;;;;18.30;58.90;;;;;;5112278;28;19914;-71
2024/03/21 11:04:10;;;;;;;;;;;18.30;56.10;;;;;;5112371;28;19943;-70
2024/03/21 11:06:36;;;;;;;;;;;18.20;56.00;;;;;;5093986;28;19912;-71
2024/03/21 11:09:03;;;;;;;;;;;18.20;59.20;;;;;;5112234;28;19919;-72
2024/03/21 11:11:29;;;;;;;;;;;18.20;59.10;;;;;;5112687;28;19915;-71
2024/03/21 11:13:58;;;;;;;;;;;18.20;59.30;;;;;;5112236;28;19953;-70
2024/03/21 11:16:24;;;;;;;;;;;18.20;59.30;;;;;;5112443;28;19907;-71
2024/03/21 11:18:49;;;;;;;;;;;18.30;59.10;;;;;;5112099;28;19993;-70
2024/03/21 11:21:15;;;;;;;;;;;18.30;59.20;;;;;;5112323;28;19915;-70
2024/03/21 11:23:41;;;;;;;;;;;18.30;59.40;;;;;;5112264;28;19907;-71
2024/03/21 11:26:10;;;;;;;;;;;18.30;59.20;;;;;;5112034;28;19994;-71
2024/03/21 11:28:36;;;;;;;;;;;18.30;59.30;;;;;;5111941;28;19908;-71
2024/03/21 11:31:02;;;;;;;;;;;18.30;59.00;;;;;;5112128;28;19918;-71
2024/03/21 11:33:29;;;;;;;;;;;18.30;58.90;;;;;;5112163;28;20263;-71
2024/03/21 11:35:54;;;;;;;;;;;18.30;59.40;;;;;;5112483;28;19915;-71
2024/03/21 11:38:19;;;;;;;;;;;18.30;59.80;;;;;;5116149;28;19916;-71
2024/03/21 11:40:45;;;;;;;;;;;18.30;59.20;;;;;;5116869;28;20396;-71
2024/03/21 11:43:11;;;;;;;;;;;18.90;59.50;;;;;;5116295;28;19908;-70
2024/03/21 11:45:36;;;;;;;;;;;18.30;59.20;;;;;;5116127;28;20333;-71
2024/03/21 11:48:09;;;;;;;;;;;18.20;59.30;;;;;;5116064;28;19912;-70
2024/03/21 11:50:38;;;;;;;;;;;18.30;59.00;;;;;;5116239;28;19992;-71
2024/03/21 11:53:04;;;;;;;;;;;18.30;59.30;;;;;;5116063;28;19907;-71
2024/03/21 11:55:30;;;;;;;;;;;18.30;59.50;;;;;;5115949;28;20358;-70
2024/03/21 11:57:55;;;;;;;;;;;18.30;59.40;;;;;;5115815;28;19920;-70
2024/03/21 12:00:24;;;;;;;;;;;18.30;59.70;;;;;;5115955;28;19907;-70
2024/03/21 12:02:50;;;;;;;;;;;18.30;58.80;;;;;;5115769;28;20339;-70
2024/03/21 12:05:16;;;;;;;;;;;18.30;59.40;;;;;;5116170;28;20274;-70
2024/03/21 12:07:42;;;;;;;;;;;18.30;59.30;;;;;;5115961;28;20231;-70
2024/03/21 12:10:09;;;;;;;;;;;18.30;59.40;;;;;;5116589;28;19908;-70
2024/03/21 12:12:35;;;;;;;;;;;18.30;59.10;;;;;;5116020;28;20379;-70
2024/03/21 12:15:01;;;;;;;;;;;18.30;59.30;;;;;;5115908;28;19915;-70
2024/03/21 12:17:27;;;;;;;;;;;18.30;59.20;;;;;;5115538;28;20234;-70
2024/03/21 12:19:53;;;;;;;;;;;18.30;59.40;;;;;;5115559;28;19908;-70
2024/03/21 12:22:19;;;;;;;;;;;18.30;59.50;;;;;;5115909;28;19915;-70
2024/03/21 12:24:45;;;;;;;;;;;18.30;59.60;;;;;;5115551;28;19908;-70
2024/03/21 12:27:11;;;;;;;;;;;18.30;59.40;;;;;;5115781;28;20255;-70
2024/03/21 12:29:37;;;;;;;;;;;18.30;59.50;;;;;;5115355;28;20360;-70
2024/03/21 12:32:03;;;;;;;;;;;18.30;59.60;;;;;;5115309;28;20015;-70
2024/03/21 12:34:29;;;;;;;;;;;18.40;58.90;;;;;;5115623;28;19968;-70
2024/03/21 12:36:55;;;;;;;;;;;18.30;59.60;;;;;;5116020;28;19908;-70
2024/03/21 12:39:21;;;;;;;;;;;18.30;59.00;;;;;;5115483;28;19941;-70
2024/03/21 12:41:47;;;;;;;;;;;18.30;59.30;;;;;;5115378;28;20415;-70
2024/03/21 12:44:16;;;;;;;;;;;18.30;59.70;;;;;;5114941;28;19908;-70
2024/03/21 12:46:42;;;;;;;;;;;18.50;57.30;;;;;;5115360;28;19934;-70
2024/03/21 12:49:08;;;;;;;;;;;18.50;59.50;;;;;;5115251;28;19907;-70
2024/03/21 12:51:34;;;;;;;;;;;18.30;59.20;;;;;;5114958;28;19908;-70
2024/03/21 12:54:00;;;;;;;;;;;18.30;59.40;;;;;;5114988;28;19915;-73
2024/03/21 12:56:26;;;;;;;;;;;18.30;59.40;;;;;;5114801;28;19908;-72
2024/03/21 12:58:51;;;;;;;;;;;18.20;59.20;;;;;;5114769;28;19927;-72
2024/03/21 13:01:17;;;;;;;;;;;18.20;59.30;;;;;;5115085;28;19915;-72
2024/03/21 13:03:42;;;;;;;;;;;18.30;58.70;;;;;;5114262;28;20289;-72
2024/03/21 13:06:08;;;;;;;;;;;18.30;59.50;;;;;;5116423;28;19908;-72
2024/03/21 13:08:33;;;;;;;;;;;18.30;59.40;;;;;;5114451;28;19908;-72
2024/03/21 13:10:59;;;;;;;;;;;18.20;59.30;;;;;;5114745;28;19915;-72
2024/03/21 13:13:24;;;;;;;;;;;18.20;59.60;;;;;;5114703;28;19907;-71
2024/03/21 13:15:50;;;;;;;;;;;18.20;59.10;;;;;;5114600;28;19908;-70
2024/03/21 13:18:17;;;;;;;;;;;18.30;59.10;;;;;;5114437;28;19916;-71
2024/03/21 13:20:43;;;;;;;;;;;18.20;59.00;;;;;;5114426;28;19998;-71
2024/03/21 13:23:09;;;;;;;;;;;18.30;59.10;;;;;;5114477;28;20025;-70
2024/03/21 13:25:34;;;;;;;;;;;18.20;59.20;;;;;;5114677;28;19908;-70
2024/03/21 13:28:00;;;;;;;;;;;18.30;59.30;;;;;;5114339;28;19907;-72
2024/03/21 13:30:29;;;;;;;;;;;18.20;59.10;;;;;;5114400;28;19907;-73
2024/03/21 13:32:55;;;;;;;;;;;18.20;58.90;;;;;;5114377;28;19915;-72
2024/03/21 13:35:20;;;;;;;;;;;18.20;59.20;;;;;;5114468;28;20261;-72
2024/03/21 13:37:48;;;;;;;;;;;18.20;59.00;;;;;;5113898;28;19916;-70
2024/03/21 13:40:13;;;;;;;;;;;18.20;59.00;;;;;;5114068;28;19908;-70
2024/03/21 13:42:38;;;;;;;;;;;18.20;59.00;;;;;;5113742;28;19908;-70
2024/03/21 13:45:04;;;;;;;;;;;18.20;59.00;;;;;;5113796;28;19908;-70
2024/03/21 13:47:32;;;;;;;;;;;18.20;58.30;;;;;;5113668;28;19908;-71
2024/03/21 13:49:58;;;;;;;;;;;18.20;58.80;;;;;;5113651;28;19908;-70
2024/03/21 13:52:25;;;;;;;;;;;18.10;58.90;;;;;;5113590;28;19915;-70
2024/03/21 13:54:51;;;;;;;;;;;18.20;58.90;;;;;;5113577;28;19973;-70
2024/03/21 13:57:17;;;;;;;;;;;18.20;59.30;;;;;;5113525;28;19912;-70
2024/03/21 13:59:42;;;;;;;;;;;18.20;58.50;;;;;;5113097;28;20363;-70
2024/03/21 14:02:08;;;;;;;;;;;18.30;58.50;;;;;;5113619;28;19914;-70
2024/03/21 14:04:34;;;;;;;;;;;18.20;58.90;;;;;;5113369;28;19915;-70
2024/03/21 14:06:59;;;;;;;;;;;18.20;58.90;;;;;;5113182;28;19908;-70
2024/03/21 14:09:25;;;;;;;;;;;18.20;59.00;;;;;;5113237;28;20527;-70
2024/03/21 14:11:50;;;;;;;;;;;18.10;58.70;;;;;;5113263;28;19907;-70